sensor_id;sensor_type;location;lat;lon;timestamp;temperature;humidity
21662;DHT22;10992;48.170;8.596;2022-08-19T00:01:25;16.90;99.90
21662;DHT22;10992;48.170;8.596;2022-08-19T00:04:02;16.90;99.90
21662;DHT22;10992;48.170;8.596;2022-08-19T00:06:30;16.90;99.90
21662;DHT22;10992;48.170;8.596;2022-08-19T00:08:58;16.90;99.90
21662;DHT22;10992;48.170;8.596;2022-08-19T00:11:27;16.90;99.90
21662;DHT22;10992;48.170;8.596;2022-08-19T00:13:55;16.90;99.90
21662;DHT22;10992;48.170;8.596;2022-08-19T00:16:24;16.80;99.90
21662;DHT22;10992;48.170;8.596;2022-08-19T00:18:53;16.80;99.90
21662;DHT22;10992;48.170;8.596;2022-08-19T00:21:21;16.80;99.90
21662;DHT22;10992;48.170;8.596;2022-08-19T00:23:48;16.80;99.90
21662;DHT22;10992;48.170;8.596;2022-08-19T00:26:14;16.80;99.90
21662;DHT22;10992;48.170;8.596;2022-08-19T00:28:41;16.80;99.90
21662;DHT22;10992;48.170;8.596;2022-08-19T00:31:08;16.80;99.90
21662;DHT22;10992;48.170;8.596;2022-08-19T00:33:36;16.80;99.90
21662;DHT22;10992;48.170;8.596;2022-08-19T00:36:05;16.70;99.90
21662;DHT22;10992;48.170;8.596;2022-08-19T00:38:36;16.70;99.90
21662;DHT22;10992;48.170;8.596;2022-08-19T00:41:07;16.80;99.90
21662;DHT22;10992;48.170;8.596;2022-08-19T00:43:35;16.70;99.90
21662;DHT22;10992;48.170;8.596;2022-08-19T00:46:01;16.70;99.90
21662;DHT22;10992;48.170;8.596;2022-08-19T00:48:32;16.70;99.90
21662;DHT22;10992;48.170;8.596;2022-08-19T00:51:01;16.70;99.90
21662;DHT22;10992;48.170;8.596;2022-08-19T00:53:31;16.60;99.90
21662;DHT22;10992;48.170;8.596;2022-08-19T00:56:01;16.60;99.90
21662;DHT22;10992;48.170;8.596;2022-08-19T00:58:33;16.60;99.90
21662;DHT22;10992;48.170;8.596;2022-08-19T01:01:01;16.60;99.90
21662;DHT22;10992;48.170;8.596;2022-08-19T01:03:28;16.60;99.90
21662;DHT22;10992;48.170;8.596;2022-08-19T01:06:16;16.60;99.90
21662;DHT22;10992;48.170;8.596;2022-08-19T01:08:46;16.60;99.90
21662;DHT22;10992;48.170;8.596;2022-08-19T01:11:16;16.60;99.90
21662;DHT22;10992;48.170;8.596;2022-08-19T01:13:44;16.60;99.90
21662;DHT22;10992;48.170;8.596;2022-08-19T01:16:18;16.60;99.90
21662;DHT22;10992;48.170;8.596;2022-08-19T01:18:45;16.60;99.90
21662;DHT22;10992;48.170;8.596;2022-08-19T01:23:51;16.60;99.90
21662;DHT22;10992;48.170;8.596;2022-08-19T01:26:22;16.60;99.90
21662;DHT22;10992;48.170;8.596;2022-08-19T01:28:52;16.60;99.90
21662;DHT22;10992;48.170;8.596;2022-08-19T01:31:26;16.50;99.90
21662;DHT22;10992;48.170;8.596;2022-08-19T01:33:59;16.50;99.90
21662;DHT22;10992;48.170;8.596;2022-08-19T01:36:35;16.40;99.90
21662;DHT22;10992;48.170;8.596;2022-08-19T01:39:06;16.40;99.90
21662;DHT22;10992;48.170;8.596;2022-08-19T01:41:34;16.40;99.90
21662;DHT22;10992;48.170;8.596;2022-08-19T01:44:01;16.40;99.90
21662;DHT22;10992;48.170;8.596;2022-08-19T01:46:46;16.40;99.90
21662;DHT22;10992;48.170;8.596;2022-08-19T01:49:18;16.50;99.90
21662;DHT22;10992;48.170;8.596;2022-08-19T01:51:46;16.50;99.90
21662;DHT22;10992;48.170;8.596;2022-08-19T01:54:15;16.50;99.90
21662;DHT22;10992;48.170;8.596;2022-08-19T01:56:58;16.50;99.90
21662;DHT22;10992;48.170;8.596;2022-08-19T01:59:25;16.40;99.90
21662;DHT22;10992;48.170;8.596;2022-08-19T02:01:52;16.40;99.90
21662;DHT22;10992;48.170;8.596;2022-08-19T02:04:19;16.40;99.90
21662;DHT22;10992;48.170;8.596;2022-08-19T02:06:47;16.40;99.90
21662;DHT22;10992;48.170;8.596;2022-08-19T02:09:14;16.40;99.90
21662;DHT22;10992;48.170;8.596;2022-08-19T02:11:42;16.40;99.90
21662;DHT22;10992;48.170;8.596;2022-08-19T02:14:09;16.40;99.90
21662;DHT22;10992;48.170;8.596;2022-08-19T02:16:37;16.40;99.90
21662;DHT22;10992;48.170;8.596;2022-08-19T02:19:05;16.40;99.90
21662;DHT22;10992;48.170;8.596;2022-08-19T02:21:32;16.40;99.90
21662;DHT22;10992;48.170;8.596;2022-08-19T02:23:59;16.40;99.90
21662;DHT22;10992;48.170;8.596;2022-08-19T02:26:27;16.40;99.90
21662;DHT22;10992;48.170;8.596;2022-08-19T02:28:54;16.30;99.90
21662;DHT22;10992;48.170;8.596;2022-08-19T02:31:23;16.40;99.90
21662;DHT22;10992;48.170;8.596;2022-08-19T02:33:52;16.30;99.90
21662;DHT22;10992;48.170;8.596;2022-08-19T02:36:23;16.30;99.90
21662;DHT22;10992;48.170;8.596;2022-08-19T02:38:51;16.30;99.90
21662;DHT22;10992;48.170;8.596;2022-08-19T02:41:27;16.30;99.90
21662;DHT22;10992;48.170;8.596;2022-08-19T02:43:56;16.30;99.90
21662;DHT22;10992;48.170;8.596;2022-08-19T02:46:46;16.30;99.90
21662;DHT22;10992;48.170;8.596;2022-08-19T02:49:13;16.30;99.90
21662;DHT22;10992;48.170;8.596;2022-08-19T02:51:44;16.30;99.90
21662;DHT22;10992;48.170;8.596;2022-08-19T02:54:12;16.30;99.90
21662;DHT22;10992;48.170;8.596;2022-08-19T02:56:40;16.30;99.90
21662;DHT22;10992;48.170;8.596;2022-08-19T02:59:08;16.30;99.90
21662;DHT22;10992;48.170;8.596;2022-08-19T03:01:39;16.20;99.90
21662;DHT22;10992;48.170;8.596;2022-08-19T03:04:09;16.30;99.90
21662;DHT22;10992;48.170;8.596;2022-08-19T03:06:41;16.30;99.90
21662;DHT22;10992;48.170;8.596;2022-08-19T03:09:08;16.30;99.90
21662;DHT22;10992;48.170;8.596;2022-08-19T03:11:35;16.30;99.90
21662;DHT22;10992;48.170;8.596;2022-08-19T03:14:04;16.30;99.90
21662;DHT22;10992;48.170;8.596;2022-08-19T03:16:33;16.30;99.90
21662;DHT22;10992;48.170;8.596;2022-08-19T03:19:01;16.30;99.90
21662;DHT22;10992;48.170;8.596;2022-08-19T03:21:31;16.30;99.90
21662;DHT22;10992;48.170;8.596;2022-08-19T03:24:00;16.30;99.90
21662;DHT22;10992;48.170;8.596;2022-08-19T03:26:28;16.30;99.90
21662;DHT22;10992;48.170;8.596;2022-08-19T03:28:55;16.30;99.90
21662;DHT22;10992;48.170;8.596;2022-08-19T03:31:26;16.30;99.90
21662;DHT22;10992;48.170;8.596;2022-08-19T03:34:15;16.30;99.90
21662;DHT22;10992;48.170;8.596;2022-08-19T03:36:44;16.30;99.90
21662;DHT22;10992;48.170;8.596;2022-08-19T03:39:12;16.30;99.90
21662;DHT22;10992;48.170;8.596;2022-08-19T03:41:42;16.30;99.90
21662;DHT22;10992;48.170;8.596;2022-08-19T03:44:20;16.40;99.90
21662;DHT22;10992;48.170;8.596;2022-08-19T03:46:50;16.30;99.90
21662;DHT22;10992;48.170;8.596;2022-08-19T03:49:18;16.40;99.90
21662;DHT22;10992;48.170;8.596;2022-08-19T03:51:46;16.40;99.90
21662;DHT22;10992;48.170;8.596;2022-08-19T03:54:17;16.30;99.90
21662;DHT22;10992;48.170;8.596;2022-08-19T03:56:48;16.30;99.90
21662;DHT22;10992;48.170;8.596;2022-08-19T03:59:22;16.30;99.90
21662;DHT22;10992;48.170;8.596;2022-08-19T04:01:57;16.40;99.90
21662;DHT22;10992;48.170;8.596;2022-08-19T04:04:25;16.40;99.90
21662;DHT22;10992;48.170;8.596;2022-08-19T04:06:55;16.40;99.90
21662;DHT22;10992;48.170;8.596;2022-08-19T04:09:22;16.40;99.90
21662;DHT22;10992;48.170;8.596;2022-08-19T04:11:52;16.40;99.90
21662;DHT22;10992;48.170;8.596;2022-08-19T04:14:23;16.40;99.90
21662;DHT22;10992;48.170;8.596;2022-08-19T04:16:51;16.40;99.90
21662;DHT22;10992;48.170;8.596;2022-08-19T04:19:19;16.40;99.90
21662;DHT22;10992;48.170;8.596;2022-08-19T04:21:51;16.50;99.90
21662;DHT22;10992;48.170;8.596;2022-08-19T04:24:18;16.40;99.90
21662;DHT22;10992;48.170;8.596;2022-08-19T04:26:46;16.40;99.90
21662;DHT22;10992;48.170;8.596;2022-08-19T04:29:16;16.40;99.90
21662;DHT22;10992;48.170;8.596;2022-08-19T04:31:44;16.40;99.90
21662;DHT22;10992;48.170;8.596;2022-08-19T04:34:13;16.30;99.90
21662;DHT22;10992;48.170;8.596;2022-08-19T04:36:42;16.30;99.90
21662;DHT22;10992;48.170;8.596;2022-08-19T04:39:16;16.30;99.90
21662;DHT22;10992;48.170;8.596;2022-08-19T04:41:44;16.30;99.90
21662;DHT22;10992;48.170;8.596;2022-08-19T04:44:35;16.20;99.90
21662;DHT22;10992;48.170;8.596;2022-08-19T04:47:11;16.20;99.90
21662;DHT22;10992;48.170;8.596;2022-08-19T04:49:38;16.20;99.90
21662;DHT22;10992;48.170;8.596;2022-08-19T04:52:05;16.20;99.90
21662;DHT22;10992;48.170;8.596;2022-08-19T04:54:32;16.20;99.90
21662;DHT22;10992;48.170;8.596;2022-08-19T04:57:07;16.20;99.90
21662;DHT22;10992;48.170;8.596;2022-08-19T04:59:36;16.20;99.90
21662;DHT22;10992;48.170;8.596;2022-08-19T05:02:04;16.20;99.90
21662;DHT22;10992;48.170;8.596;2022-08-19T05:04:31;16.20;99.90
21662;DHT22;10992;48.170;8.596;2022-08-19T05:07:00;16.20;99.90
21662;DHT22;10992;48.170;8.596;2022-08-19T05:09:28;16.20;99.90
21662;DHT22;10992;48.170;8.596;2022-08-19T05:12:16;16.20;99.90
21662;DHT22;10992;48.170;8.596;2022-08-19T05:14:43;16.20;99.90
21662;DHT22;10992;48.170;8.596;2022-08-19T05:17:12;16.20;99.90
21662;DHT22;10992;48.170;8.596;2022-08-19T05:19:58;16.20;99.90
21662;DHT22;10992;48.170;8.596;2022-08-19T05:22:45;16.20;99.90
21662;DHT22;10992;48.170;8.596;2022-08-19T05:25:17;16.20;99.90
21662;DHT22;10992;48.170;8.596;2022-08-19T05:27:48;16.20;99.90
21662;DHT22;10992;48.170;8.596;2022-08-19T05:30:15;16.20;99.90
21662;DHT22;10992;48.170;8.596;2022-08-19T05:32:42;16.30;99.90
21662;DHT22;10992;48.170;8.596;2022-08-19T05:35:10;16.20;99.90
21662;DHT22;10992;48.170;8.596;2022-08-19T05:37:38;16.30;99.90
21662;DHT22;10992;48.170;8.596;2022-08-19T05:40:08;16.30;99.90
21662;DHT22;10992;48.170;8.596;2022-08-19T05:42:35;16.30;99.90
21662;DHT22;10992;48.170;8.596;2022-08-19T05:45:03;16.30;99.90
21662;DHT22;10992;48.170;8.596;2022-08-19T05:47:30;16.30;99.90
21662;DHT22;10992;48.170;8.596;2022-08-19T05:49:57;16.30;99.90
21662;DHT22;10992;48.170;8.596;2022-08-19T05:52:24;16.30;99.90
21662;DHT22;10992;48.170;8.596;2022-08-19T05:54:53;16.30;99.90
21662;DHT22;10992;48.170;8.596;2022-08-19T05:57:23;16.30;99.90
21662;DHT22;10992;48.170;8.596;2022-08-19T05:59:51;16.30;99.90
21662;DHT22;10992;48.170;8.596;2022-08-19T06:02:28;16.30;99.90
21662;DHT22;10992;48.170;8.596;2022-08-19T06:04:55;16.40;99.90
21662;DHT22;10992;48.170;8.596;2022-08-19T06:07:22;16.40;99.90
21662;DHT22;10992;48.170;8.596;2022-08-19T06:09:49;16.40;99.90
21662;DHT22;10992;48.170;8.596;2022-08-19T06:12:36;16.30;99.90
21662;DHT22;10992;48.170;8.596;2022-08-19T06:15:11;16.30;99.90
21662;DHT22;10992;48.170;8.596;2022-08-19T06:17:38;16.30;99.90
21662;DHT22;10992;48.170;8.596;2022-08-19T06:20:09;16.30;99.90
21662;DHT22;10992;48.170;8.596;2022-08-19T06:22:41;16.40;99.90
21662;DHT22;10992;48.170;8.596;2022-08-19T06:25:10;16.40;99.90
21662;DHT22;10992;48.170;8.596;2022-08-19T06:27:37;16.50;99.90
21662;DHT22;10992;48.170;8.596;2022-08-19T06:30:19;16.50;99.90
21662;DHT22;10992;48.170;8.596;2022-08-19T06:32:46;16.50;99.90
21662;DHT22;10992;48.170;8.596;2022-08-19T06:35:12;16.60;99.90
21662;DHT22;10992;48.170;8.596;2022-08-19T06:37:41;16.60;99.90
21662;DHT22;10992;48.170;8.596;2022-08-19T06:40:10;16.60;99.90
21662;DHT22;10992;48.170;8.596;2022-08-19T06:42:37;16.60;99.90
21662;DHT22;10992;48.170;8.596;2022-08-19T06:45:08;16.60;99.90
21662;DHT22;10992;48.170;8.596;2022-08-19T06:47:35;16.70;99.90
21662;DHT22;10992;48.170;8.596;2022-08-19T06:50:03;16.70;99.90
21662;DHT22;10992;48.170;8.596;2022-08-19T06:52:33;16.80;99.90
21662;DHT22;10992;48.170;8.596;2022-08-19T06:55:02;16.80;99.90
21662;DHT22;10992;48.170;8.596;2022-08-19T06:57:33;16.80;99.90
21662;DHT22;10992;48.170;8.596;2022-08-19T07:00:00;16.80;99.90
21662;DHT22;10992;48.170;8.596;2022-08-19T07:02:27;16.90;99.90
21662;DHT22;10992;48.170;8.596;2022-08-19T07:04:54;16.90;99.90
21662;DHT22;10992;48.170;8.596;2022-08-19T07:07:23;16.90;99.90
21662;DHT22;10992;48.170;8.596;2022-08-19T07:09:50;16.90;99.90
21662;DHT22;10992;48.170;8.596;2022-08-19T07:12:29;17.00;99.90
21662;DHT22;10992;48.170;8.596;2022-08-19T07:15:04;17.00;99.90
21662;DHT22;10992;48.170;8.596;2022-08-19T07:17:31;17.20;99.90
21662;DHT22;10992;48.170;8.596;2022-08-19T07:20:00;17.30;99.90
21662;DHT22;10992;48.170;8.596;2022-08-19T07:22:36;17.30;99.90
21662;DHT22;10992;48.170;8.596;2022-08-19T07:25:05;17.40;99.90
21662;DHT22;10992;48.170;8.596;2022-08-19T07:27:32;17.50;99.90
21662;DHT22;10992;48.170;8.596;2022-08-19T07:30:00;17.60;99.90
21662;DHT22;10992;48.170;8.596;2022-08-19T07:32:27;17.70;99.90
21662;DHT22;10992;48.170;8.596;2022-08-19T07:34:55;17.90;99.90
21662;DHT22;10992;48.170;8.596;2022-08-19T07:37:23;17.90;99.90
21662;DHT22;10992;48.170;8.596;2022-08-19T07:39:58;18.20;99.90
21662;DHT22;10992;48.170;8.596;2022-08-19T07:42:25;18.40;99.90
21662;DHT22;10992;48.170;8.596;2022-08-19T07:44:53;18.40;99.90
21662;DHT22;10992;48.170;8.596;2022-08-19T07:47:19;18.40;99.90
21662;DHT22;10992;48.170;8.596;2022-08-19T07:50:08;18.60;99.90
21662;DHT22;10992;48.170;8.596;2022-08-19T07:52:37;18.50;99.90
21662;DHT22;10992;48.170;8.596;2022-08-19T07:55:08;18.30;99.90
21662;DHT22;10992;48.170;8.596;2022-08-19T07:57:57;18.30;99.90
21662;DHT22;10992;48.170;8.596;2022-08-19T08:00:25;18.30;99.90
21662;DHT22;10992;48.170;8.596;2022-08-19T08:02:53;18.40;99.90
21662;DHT22;10992;48.170;8.596;2022-08-19T08:05:22;18.30;99.90
21662;DHT22;10992;48.170;8.596;2022-08-19T08:08:11;18.30;99.90
21662;DHT22;10992;48.170;8.596;2022-08-19T08:10:58;18.60;99.90
21662;DHT22;10992;48.170;8.596;2022-08-19T08:13:25;18.40;99.90
21662;DHT22;10992;48.170;8.596;2022-08-19T08:15:53;18.40;99.90
21662;DHT22;10992;48.170;8.596;2022-08-19T08:18:23;18.60;99.90
21662;DHT22;10992;48.170;8.596;2022-08-19T08:20:57;18.60;99.90
21662;DHT22;10992;48.170;8.596;2022-08-19T08:23:24;18.40;99.90
21662;DHT22;10992;48.170;8.596;2022-08-19T08:25:54;18.60;99.90
21662;DHT22;10992;48.170;8.596;2022-08-19T08:28:22;18.50;99.90
21662;DHT22;10992;48.170;8.596;2022-08-19T08:30:50;18.80;99.90
21662;DHT22;10992;48.170;8.596;2022-08-19T08:33:20;18.80;99.90
21662;DHT22;10992;48.170;8.596;2022-08-19T08:36:06;18.90;99.90
21662;DHT22;10992;48.170;8.596;2022-08-19T08:38:34;18.90;99.90
21662;DHT22;10992;48.170;8.596;2022-08-19T08:43:49;18.70;99.90
21662;DHT22;10992;48.170;8.596;2022-08-19T08:46:43;18.70;99.90
21662;DHT22;10992;48.170;8.596;2022-08-19T08:49:36;18.80;99.90
21662;DHT22;10992;48.170;8.596;2022-08-19T08:52:36;18.80;99.90
21662;DHT22;10992;48.170;8.596;2022-08-19T08:55:11;18.80;99.90
21662;DHT22;10992;48.170;8.596;2022-08-19T08:57:49;18.60;99.90
21662;DHT22;10992;48.170;8.596;2022-08-19T09:00:23;18.20;99.90
21662;DHT22;10992;48.170;8.596;2022-08-19T09:02:52;18.20;99.90
21662;DHT22;10992;48.170;8.596;2022-08-19T09:05:21;18.30;99.90
21662;DHT22;10992;48.170;8.596;2022-08-19T09:08:08;18.30;99.90
21662;DHT22;10992;48.170;8.596;2022-08-19T09:11:09;18.40;99.90
21662;DHT22;10992;48.170;8.596;2022-08-19T09:17:03;18.20;99.90
21662;DHT22;10992;48.170;8.596;2022-08-19T09:19:46;18.00;99.90
21662;DHT22;10992;48.170;8.596;2022-08-19T09:22:13;17.80;99.90
21662;DHT22;10992;48.170;8.596;2022-08-19T09:24:51;18.00;99.90
21662;DHT22;10992;48.170;8.596;2022-08-19T09:27:20;17.90;99.90
21662;DHT22;10992;48.170;8.596;2022-08-19T09:30:17;18.00;99.90
21662;DHT22;10992;48.170;8.596;2022-08-19T09:32:45;18.00;99.90
21662;DHT22;10992;48.170;8.596;2022-08-19T09:35:13;18.10;99.90
21662;DHT22;10992;48.170;8.596;2022-08-19T09:37:42;18.30;99.90
21662;DHT22;10992;48.170;8.596;2022-08-19T09:40:11;18.20;99.90
21662;DHT22;10992;48.170;8.596;2022-08-19T09:42:38;18.20;99.90
21662;DHT22;10992;48.170;8.596;2022-08-19T09:45:19;18.30;99.90
21662;DHT22;10992;48.170;8.596;2022-08-19T09:47:51;18.20;99.90
21662;DHT22;10992;48.170;8.596;2022-08-19T09:50:21;18.20;99.90
21662;DHT22;10992;48.170;8.596;2022-08-19T09:52:49;18.30;99.90
21662;DHT22;10992;48.170;8.596;2022-08-19T09:55:24;18.40;99.90
21662;DHT22;10992;48.170;8.596;2022-08-19T09:58:00;18.40;99.90
21662;DHT22;10992;48.170;8.596;2022-08-19T10:00:28;18.30;99.90
21662;DHT22;10992;48.170;8.596;2022-08-19T10:02:57;18.30;99.90
21662;DHT22;10992;48.170;8.596;2022-08-19T10:05:24;18.30;99.90
21662;DHT22;10992;48.170;8.596;2022-08-19T10:08:09;18.10;99.90
21662;DHT22;10992;48.170;8.596;2022-08-19T10:10:42;18.10;99.90
21662;DHT22;10992;48.170;8.596;2022-08-19T10:13:15;18.10;99.90
21662;DHT22;10992;48.170;8.596;2022-08-19T10:15:43;18.00;99.90
21662;DHT22;10992;48.170;8.596;2022-08-19T10:18:16;18.00;99.90
21662;DHT22;10992;48.170;8.596;2022-08-19T10:20:45;18.10;99.90
21662;DHT22;10992;48.170;8.596;2022-08-19T10:23:18;18.10;99.90
21662;DHT22;10992;48.170;8.596;2022-08-19T10:25:47;18.10;99.90
21662;DHT22;10992;48.170;8.596;2022-08-19T10:28:14;18.20;99.90
21662;DHT22;10992;48.170;8.596;2022-08-19T10:30:45;18.00;99.90
21662;DHT22;10992;48.170;8.596;2022-08-19T10:33:12;17.90;99.90
21662;DHT22;10992;48.170;8.596;2022-08-19T10:35:39;18.00;99.90
21662;DHT22;10992;48.170;8.596;2022-08-19T10:38:22;18.10;99.90
21662;DHT22;10992;48.170;8.596;2022-08-19T10:41:05;18.10;99.90
21662;DHT22;10992;48.170;8.596;2022-08-19T10:43:33;18.20;99.90
21662;DHT22;10992;48.170;8.596;2022-08-19T10:46:04;18.30;99.90
21662;DHT22;10992;48.170;8.596;2022-08-19T10:48:40;18.40;99.90
21662;DHT22;10992;48.170;8.596;2022-08-19T10:51:09;18.40;99.90
21662;DHT22;10992;48.170;8.596;2022-08-19T10:53:55;18.60;99.90
21662;DHT22;10992;48.170;8.596;2022-08-19T10:56:22;18.60;99.90
21662;DHT22;10992;48.170;8.596;2022-08-19T10:59:08;18.50;99.90
21662;DHT22;10992;48.170;8.596;2022-08-19T11:01:35;18.60;99.90
21662;DHT22;10992;48.170;8.596;2022-08-19T11:04:03;18.50;99.90
21662;DHT22;10992;48.170;8.596;2022-08-19T11:06:34;18.60;99.90
21662;DHT22;10992;48.170;8.596;2022-08-19T11:09:00;18.70;99.90
21662;DHT22;10992;48.170;8.596;2022-08-19T11:11:27;19.10;99.90
21662;DHT22;10992;48.170;8.596;2022-08-19T11:13:55;19.20;99.90
21662;DHT22;10992;48.170;8.596;2022-08-19T11:16:24;19.10;99.90
21662;DHT22;10992;48.170;8.596;2022-08-19T11:18:54;19.40;99.90
21662;DHT22;10992;48.170;8.596;2022-08-19T11:21:29;19.50;99.90
21662;DHT22;10992;48.170;8.596;2022-08-19T11:24:01;19.40;99.90
21662;DHT22;10992;48.170;8.596;2022-08-19T11:26:30;19.40;99.90
21662;DHT22;10992;48.170;8.596;2022-08-19T11:28:58;19.50;99.90
21662;DHT22;10992;48.170;8.596;2022-08-19T11:31:28;19.60;99.90
21662;DHT22;10992;48.170;8.596;2022-08-19T11:33:58;19.60;99.90
21662;DHT22;10992;48.170;8.596;2022-08-19T11:36:26;19.40;99.90
21662;DHT22;10992;48.170;8.596;2022-08-19T11:38:53;19.50;99.90
21662;DHT22;10992;48.170;8.596;2022-08-19T11:41:22;19.30;99.90
21662;DHT22;10992;48.170;8.596;2022-08-19T11:43:50;19.40;99.90
21662;DHT22;10992;48.170;8.596;2022-08-19T11:46:20;19.50;99.90
21662;DHT22;10992;48.170;8.596;2022-08-19T11:48:50;19.50;99.90
21662;DHT22;10992;48.170;8.596;2022-08-19T11:51:20;19.60;99.90
21662;DHT22;10992;48.170;8.596;2022-08-19T11:53:48;19.50;99.90
21662;DHT22;10992;48.170;8.596;2022-08-19T11:56:17;19.70;99.90
21662;DHT22;10992;48.170;8.596;2022-08-19T11:58:45;19.70;99.90
21662;DHT22;10992;48.170;8.596;2022-08-19T12:01:14;19.90;99.90
21662;DHT22;10992;48.170;8.596;2022-08-19T12:03:44;19.90;99.90
21662;DHT22;10992;48.170;8.596;2022-08-19T12:06:19;19.90;99.90
21662;DHT22;10992;48.170;8.596;2022-08-19T12:08:46;20.00;99.90
21662;DHT22;10992;48.170;8.596;2022-08-19T12:11:14;19.90;99.90
21662;DHT22;10992;48.170;8.596;2022-08-19T12:13:41;19.70;99.90
21662;DHT22;10992;48.170;8.596;2022-08-19T12:16:26;19.40;99.90
21662;DHT22;10992;48.170;8.596;2022-08-19T12:18:55;19.20;99.90
21662;DHT22;10992;48.170;8.596;2022-08-19T12:21:25;19.10;99.90
21662;DHT22;10992;48.170;8.596;2022-08-19T12:23:57;19.00;99.90
21662;DHT22;10992;48.170;8.596;2022-08-19T12:26:26;18.90;99.90
21662;DHT22;10992;48.170;8.596;2022-08-19T12:28:53;18.80;99.90
21662;DHT22;10992;48.170;8.596;2022-08-19T12:31:21;18.80;99.90
21662;DHT22;10992;48.170;8.596;2022-08-19T12:33:47;18.70;99.90
21662;DHT22;10992;48.170;8.596;2022-08-19T12:36:15;18.80;99.90
21662;DHT22;10992;48.170;8.596;2022-08-19T12:38:42;18.70;99.90
21662;DHT22;10992;48.170;8.596;2022-08-19T12:41:13;18.80;99.90
21662;DHT22;10992;48.170;8.596;2022-08-19T12:43:40;18.80;99.90
21662;DHT22;10992;48.170;8.596;2022-08-19T12:46:08;18.90;99.90
21662;DHT22;10992;48.170;8.596;2022-08-19T12:48:38;18.80;99.90
21662;DHT22;10992;48.170;8.596;2022-08-19T12:51:10;18.90;99.90
21662;DHT22;10992;48.170;8.596;2022-08-19T12:53:39;18.90;99.90
21662;DHT22;10992;48.170;8.596;2022-08-19T12:56:08;19.00;99.90
21662;DHT22;10992;48.170;8.596;2022-08-19T12:58:39;19.10;99.90
21662;DHT22;10992;48.170;8.596;2022-08-19T13:01:17;19.20;99.90
21662;DHT22;10992;48.170;8.596;2022-08-19T13:03:48;19.30;99.90
21662;DHT22;10992;48.170;8.596;2022-08-19T13:06:16;19.40;99.90
21662;DHT22;10992;48.170;8.596;2022-08-19T13:08:46;19.30;99.90
21662;DHT22;10992;48.170;8.596;2022-08-19T13:11:15;19.40;99.90
21662;DHT22;10992;48.170;8.596;2022-08-19T13:13:45;19.40;99.90
21662;DHT22;10992;48.170;8.596;2022-08-19T13:16:13;19.30;99.90
21662;DHT22;10992;48.170;8.596;2022-08-19T13:18:42;19.30;99.90
21662;DHT22;10992;48.170;8.596;2022-08-19T13:21:10;19.30;99.90
21662;DHT22;10992;48.170;8.596;2022-08-19T13:23:39;19.30;99.90
21662;DHT22;10992;48.170;8.596;2022-08-19T13:26:09;19.30;99.90
21662;DHT22;10992;48.170;8.596;2022-08-19T13:28:35;19.30;99.90
21662;DHT22;10992;48.170;8.596;2022-08-19T13:31:23;19.40;99.90
21662;DHT22;10992;48.170;8.596;2022-08-19T13:34:09;19.60;99.90
21662;DHT22;10992;48.170;8.596;2022-08-19T13:36:37;19.60;99.90
21662;DHT22;10992;48.170;8.596;2022-08-19T13:39:06;19.80;99.90
21662;DHT22;10992;48.170;8.596;2022-08-19T13:41:34;19.70;99.90
21662;DHT22;10992;48.170;8.596;2022-08-19T13:44:02;19.70;99.90
21662;DHT22;10992;48.170;8.596;2022-08-19T13:46:29;19.70;99.90
21662;DHT22;10992;48.170;8.596;2022-08-19T13:48:57;19.60;99.90
21662;DHT22;10992;48.170;8.596;2022-08-19T13:51:24;19.50;99.90
21662;DHT22;10992;48.170;8.596;2022-08-19T13:53:51;19.40;99.90
21662;DHT22;10992;48.170;8.596;2022-08-19T13:56:18;19.30;99.90
21662;DHT22;10992;48.170;8.596;2022-08-19T13:58:52;19.40;99.90
21662;DHT22;10992;48.170;8.596;2022-08-19T14:01:23;19.40;99.90
21662;DHT22;10992;48.170;8.596;2022-08-19T14:03:50;19.50;99.90
21662;DHT22;10992;48.170;8.596;2022-08-19T14:06:18;19.60;99.90
21662;DHT22;10992;48.170;8.596;2022-08-19T14:08:45;19.80;99.90
21662;DHT22;10992;48.170;8.596;2022-08-19T14:11:13;19.90;99.90
21662;DHT22;10992;48.170;8.596;2022-08-19T14:13:40;20.10;99.90
21662;DHT22;10992;48.170;8.596;2022-08-19T14:16:09;20.30;99.90
21662;DHT22;10992;48.170;8.596;2022-08-19T14:18:37;20.60;99.90
21662;DHT22;10992;48.170;8.596;2022-08-19T14:21:05;20.70;99.90
21662;DHT22;10992;48.170;8.596;2022-08-19T14:23:32;20.90;99.90
21662;DHT22;10992;48.170;8.596;2022-08-19T14:26:04;20.90;99.90
21662;DHT22;10992;48.170;8.596;2022-08-19T14:28:31;21.00;99.90
21662;DHT22;10992;48.170;8.596;2022-08-19T14:30:58;21.00;99.90
21662;DHT22;10992;48.170;8.596;2022-08-19T14:33:25;21.00;99.90
21662;DHT22;10992;48.170;8.596;2022-08-19T14:35:56;21.00;99.90
21662;DHT22;10992;48.170;8.596;2022-08-19T14:38:25;21.20;99.90
21662;DHT22;10992;48.170;8.596;2022-08-19T14:41:26;21.20;99.90
21662;DHT22;10992;48.170;8.596;2022-08-19T14:43:54;21.20;99.90
21662;DHT22;10992;48.170;8.596;2022-08-19T14:46:25;21.10;99.90
21662;DHT22;10992;48.170;8.596;2022-08-19T14:48:55;20.90;99.90
21662;DHT22;10992;48.170;8.596;2022-08-19T14:51:25;20.90;99.90
21662;DHT22;10992;48.170;8.596;2022-08-19T14:53:55;20.70;99.90
21662;DHT22;10992;48.170;8.596;2022-08-19T14:56:26;20.70;99.90
21662;DHT22;10992;48.170;8.596;2022-08-19T14:58:53;20.50;99.90
21662;DHT22;10992;48.170;8.596;2022-08-19T15:01:22;20.50;99.90
21662;DHT22;10992;48.170;8.596;2022-08-19T15:03:50;20.40;99.90
21662;DHT22;10992;48.170;8.596;2022-08-19T15:06:19;20.30;99.90
21662;DHT22;10992;48.170;8.596;2022-08-19T15:08:46;20.20;99.90
21662;DHT22;10992;48.170;8.596;2022-08-19T15:11:16;20.20;99.90
21662;DHT22;10992;48.170;8.596;2022-08-19T15:13:44;20.20;99.90
21662;DHT22;10992;48.170;8.596;2022-08-19T15:16:13;20.20;99.90
21662;DHT22;10992;48.170;8.596;2022-08-19T15:18:45;20.20;99.90
21662;DHT22;10992;48.170;8.596;2022-08-19T15:21:14;20.30;99.90
21662;DHT22;10992;48.170;8.596;2022-08-19T15:23:54;20.40;99.90
21662;DHT22;10992;48.170;8.596;2022-08-19T15:26:21;20.50;99.90
21662;DHT22;10992;48.170;8.596;2022-08-19T15:28:48;20.60;99.90
21662;DHT22;10992;48.170;8.596;2022-08-19T15:31:18;20.70;99.90
21662;DHT22;10992;48.170;8.596;2022-08-19T15:33:55;20.70;99.90
21662;DHT22;10992;48.170;8.596;2022-08-19T15:36:24;20.90;99.90
21662;DHT22;10992;48.170;8.596;2022-08-19T15:38:51;21.00;99.90
21662;DHT22;10992;48.170;8.596;2022-08-19T15:41:21;21.10;99.90
21662;DHT22;10992;48.170;8.596;2022-08-19T15:44:02;21.10;99.90
21662;DHT22;10992;48.170;8.596;2022-08-19T15:46:32;21.00;99.90
21662;DHT22;10992;48.170;8.596;2022-08-19T15:48:59;21.00;99.90
21662;DHT22;10992;48.170;8.596;2022-08-19T15:51:28;21.00;99.90
21662;DHT22;10992;48.170;8.596;2022-08-19T15:53:57;21.10;99.90
21662;DHT22;10992;48.170;8.596;2022-08-19T15:56:26;21.10;99.90
21662;DHT22;10992;48.170;8.596;2022-08-19T15:59:24;21.00;99.90
21662;DHT22;10992;48.170;8.596;2022-08-19T16:02:13;21.00;99.90